Terminal Aerodrome Forecast
Issued by NWS

Home | Current Version | Previous Version | Text Only | Print | Product List | Glossary Off
Versions: 1 2 3 4 5 6 7 8 9 10 11 12 13 14 15 16 17 18 19 20 21 22

000
FTUS41 KCLE 260500
TAFFDY
TAF
KFDY 260534Z 2606/2706 18005KT P6SM SCT150 BKN250
      TEMPO 2611/2613 3SM BR
     FM261400 23008KT P6SM SCT035 BKN150
      TEMPO 2621/2624 2SM TSRA BR BKN025CB OVC035
     FM270100 29005KT P6SM SCT150 BKN250=

USA.gov is the U.S. government's official web portal to all federal, state and local government web resources and services.